Mayhew, Mississippi
Current Conditions -  °F | °C
As of 2:45 PM on Friday 24 Oct 2014 (Local Time) from KGTR Reporting Station
Clear Clear  
Wind Chill: 75°   Ceiling: Unl
Heat Index: 75°   Visibility: 10mi
Dew Point: 45°   Wind: 8mph
Humidity: 34%   Direction: 330°NNW
Pressure: 30.06"   Gusts: NA
Location:  33.49°N, 88.63°W
Report Text: KGTR 241945Z 33007KT 10SM SKC 24/07 A3006
Loading
Personal Weather Stations






























Interactive Weather Map New forecast layout! Learn more

10-Day Weather Forecast

Advertisements
Track Severe Weather on mobile